Willisville, Arkansas
Current Conditions -  °F | °C
As of 4:35 PM on Sunday 23 Nov 2014 (Local Time) from KCDH Reporting Station
Clear Clear  
Wind Chill: 68°   Ceiling: Unl
Heat Index: 68°   Visibility: 10mi
Dew Point: 59°   Wind: 8mph
Humidity: 73%   Direction: 50°NE
Pressure: 29.38"   Gusts: NA
Location:  33.52°N, 93.3°W
Report Text: KCDH 232235Z AUTO 05007KT 10SM CLR 20/15 A2938 RMK AO2
Loading
Personal Weather Stations






























Interactive Weather Map New forecast layout! Learn more

10-Day Weather Forecast

Advertisements
Track Severe Weather on mobile